• Join FlightAware (Why Join?)
  • Login
  • US Flag 
03:53AM EST


 

Airport Tracker/Info


-or-


 

Live Flight TrackerFlight Track Log ✈ UAL4236 ✈ 08-Apr-2013 ✈ KJAN - KIAH

Flight Track Log - Related Links

Times and Time Zones

All times are in EDT time to prevent confusion due to time zone crossing. See the UAL4236 flight status page for this flight to view local times or setup timezone preferences in your user account.

Time Position Orientation Groundspeed Altitude Reporting Facility
EDT Latitude Longitude Course Direction KTS MPH feet Rate Location/Type
07:00AM 32.2247 -90.0381 245° Southwest 180 207 3,200  Level Memphis Center
07:01AM 32.1789 -90.0850 221° Southwest 196 226 5,500 2,220 Climbing Memphis Center
07:02AM 32.1519 -90.1633 248° West 201 231 7,700 2,160 Climbing Memphis Center
07:03AM 32.1479 -90.4376 239° Southwest  Level FlightAware Approximate
07:03AM 32.1228 -90.2444 247° West 248 285 9,900  Level Memphis Center
07:04AM 32.1054 -90.5281 245° Southwest  Level FlightAware Approximate
07:04AM 32.0936 -90.3206 246° West 272 313 11,300  Level Memphis Center
07:05AM 32.0680 -90.6217 245° Southwest  Level FlightAware Approximate
07:05AM 32.0603 -90.4136 247° West 298 343 12,300  Level Memphis Center
07:06AM 32.0225 -90.5167 247° West 318 366 13,300 1,200 Climbing Memphis Center
07:08AM 31.9558 -90.6897 246° West 344 396 15,700 1,380 Climbing Houston Center
07:09AM 31.9181 -90.7925 247° West 343 395 17,200 1,560 Climbing Houston Center
07:10AM 31.8731 -90.9153 247° West 342 394 18,900 1,560 Climbing Houston Center
07:11AM 31.8328 -91.0181 245° Southwest 346 398 20,400 1,380 Climbing Houston Center
07:12AM 31.7928 -91.1217 246° West 349 402 21,700 1,200 Climbing Houston Center
07:13AM 31.7514 -91.2256 245° Southwest 352 405 22,900 1,140 Climbing Houston Center
07:14AM 31.7100 -91.3317 245° Southwest 358 412 24,000 1,200 Climbing Houston Center
07:15AM 31.6694 -91.4389 246° West 359 413 25,400 960 Climbing Houston Center
07:16AM 31.6281 -91.5444 245° Southwest 360 414 26,000 240 Climbing Houston Center
07:17AM 31.5867 -91.6586 247° West 376 433 26,000  Level Houston Center
07:18AM 31.5400 -91.7772 245° Southwest 399 459 26,000  Level Houston Center
07:19AM 31.4933 -91.8981 246° West 406 467 26,000  Level Houston Center
07:20AM 31.4422 -92.0189 244° Southwest 413 475 26,000  Level Houston Center
07:21AM 31.3797 -92.1325 237° Southwest 425 489 26,000  Level Houston Center
07:22AM 31.3203 -92.2494 239° Southwest 422 486 26,000  Level Houston Center
07:23AM 31.2592 -92.3675 239° Southwest 425 489 26,000  Level Houston Center
07:24AM 31.1978 -92.4850 239° Southwest 426 490 26,000  Level Houston Center
07:25AM 31.1244 -92.6261 239° Southwest 425 489 26,000  Level Houston Center
07:26AM 31.0628 -92.7436 239° Southwest 425 489 26,000  Level Houston Center
07:27AM 31.0017 -92.8597 238° Southwest 423 487 26,000  Level Houston Center
07:28AM 30.9406 -92.9778 239° Southwest 426 490 26,000  Level Houston Center
07:29AM 30.8781 -93.0939 238° Southwest 425 489 26,000  Level Houston Center
07:30AM 30.8167 -93.2117 239° Southwest 428 493 26,000  Level Houston Center
07:31AM 30.7542 -93.3286 238° Southwest 427 491 26,000  Level Houston Center
07:32AM 30.6931 -93.4456 239° Southwest 426 490 26,000  Level Houston Center
07:33AM 30.6311 -93.5614 238° Southwest 427 491 26,000 -840 Level Houston Center
07:34AM 30.5703 -93.6758 238° Southwest 424 488 24,300 -2,040 Descending Houston Center
07:35AM 30.4989 -93.8094 238° Southwest 413 475 21,900 -2,160 Descending Houston Center
07:36AM 30.4408 -93.9156 238° Southwest 398 458 20,000 -1,920 Descending Houston Center
07:37AM 30.3828 -94.0233 238° Southwest 390 449 18,000 -1,980 Descending Houston Center
07:38AM 30.3419 -94.0983 238° Southwest 381 438 16,600 -1,980 Descending Houston Center
07:38AM 30.3278 -94.1242 238° Southwest 384 442 16,000 -2,220 Descending Houston Center
07:39AM 30.2833 -94.2056 238° Southwest 376 433 14,400 -1,920 Descending Houston Center
07:39AM 30.2719 -94.2269 238° Southwest 379 436 14,100 -1,920 Descending Houston Center
07:40AM 30.2467 -94.3000 248° West 368 423 12,700 -1,920 Descending Houston Center
07:40AM 30.2344 -94.3347 248° West 368 423 12,200 -720 Descending Houston Center
07:41AM 30.2114 -94.4111 251° West 349 402 12,000 -240 Descending Houston Center
07:41AM 30.2033 -94.4406 252° West 353 406 12,000 -480 Level Houston Center
07:42AM 30.1761 -94.5244 249° West 334 384 11,500 -720 Descending Houston Center
07:42AM 30.1711 -94.5483 256° West 329 379 11,300 -1,320 Descending Houston Center
07:43AM 30.1511 -94.6125 250° West 281 323 10,200 -1,380 Descending Houston Center
07:43AM 30.1458 -94.6336 254° West 287 330 9,900 -1,620 Descending Houston Center
07:44AM 30.1258 -94.6978 250° West 266 306 8,600 -1,380 Descending Houston Center
07:44AM 30.1217 -94.7136 253° West 264 304 8,500 -1,200 Descending Houston Center
07:45AM 30.1036 -94.7733 251° West 257 296 7,400 -1,200 Descending Houston Center
07:46AM 30.0981 -94.7922 251° West 261 300 7,300 -1,200 Descending Houston Center
07:46AM 30.0778 -94.8539 249° West 254 292 6,200 -1,200 Descending Houston Center
07:47AM 30.0747 -94.8683 256° West 256 295 6,100 -1,200 Descending Houston Center
07:47AM 30.0556 -94.9292 250° West 239 275 5,000 -1,200 Descending Houston Center
07:48AM 30.0533 -94.9406 257° West 244 281 4,900 -1,200 Descending Houston Center
07:48AM 30.0314 -95.0069 249° West 242 278 3,700 -1,200 Descending Houston Center
07:49AM 30.0314 -95.0131 270° West 241 277 3,700 -1,320 Level Houston Center
07:49AM 30.0111 -95.0819 251° West 244 281 2,400 -1,500 Descending Houston Center
07:50AM 30.0053 -95.1011 251° West 242 278 2,200 -420 Descending Houston Center
07:50AM 29.9947 -95.1561 258° West 211 243 2,000 -120 Descending Houston Center
07:51AM 29.9939 -95.1700 266° West 228 262 2,100 360 Climbing Houston Center